sensor_id;sensor_type;location;lat;lon;timestamp;P1;durP1;ratioP1;P2;durP2;ratioP2
16135;SDS011;8173;48.354;9.248;2022-08-19T00:00:47;8.52;;;7.93;;
16135;SDS011;8173;48.354;9.248;2022-08-19T00:03:15;9.23;;;8.52;;
16135;SDS011;8173;48.354;9.248;2022-08-19T00:05:42;10.23;;;9.50;;
16135;SDS011;8173;48.354;9.248;2022-08-19T00:08:08;10.40;;;9.60;;
16135;SDS011;8173;48.354;9.248;2022-08-19T00:10:35;9.60;;;8.90;;
16135;SDS011;8173;48.354;9.248;2022-08-19T00:13:02;9.63;;;8.93;;
16135;SDS011;8173;48.354;9.248;2022-08-19T00:15:30;9.48;;;8.77;;
16135;SDS011;8173;48.354;9.248;2022-08-19T00:17:57;9.20;;;8.52;;
16135;SDS011;8173;48.354;9.248;2022-08-19T00:20:24;9.80;;;9.00;;
16135;SDS011;8173;48.354;9.248;2022-08-19T00:22:51;10.05;;;9.35;;
16135;SDS011;8173;48.354;9.248;2022-08-19T00:25:18;10.23;;;9.43;;
16135;SDS011;8173;48.354;9.248;2022-08-19T00:27:45;9.70;;;8.90;;
16135;SDS011;8173;48.354;9.248;2022-08-19T00:30:12;10.27;;;9.48;;
16135;SDS011;8173;48.354;9.248;2022-08-19T00:32:41;9.82;;;9.05;;
16135;SDS011;8173;48.354;9.248;2022-08-19T00:35:08;9.05;;;8.35;;
16135;SDS011;8173;48.354;9.248;2022-08-19T00:37:35;9.50;;;8.73;;
16135;SDS011;8173;48.354;9.248;2022-08-19T00:40:04;9.75;;;8.98;;
16135;SDS011;8173;48.354;9.248;2022-08-19T00:42:32;8.88;;;8.18;;
16135;SDS011;8173;48.354;9.248;2022-08-19T00:44:59;9.07;;;8.32;;
16135;SDS011;8173;48.354;9.248;2022-08-19T00:47:26;8.73;;;8.02;;
16135;SDS011;8173;48.354;9.248;2022-08-19T00:49:55;7.70;;;7.10;;
16135;SDS011;8173;48.354;9.248;2022-08-19T00:52:25;8.63;;;7.82;;
16135;SDS011;8173;48.354;9.248;2022-08-19T00:54:55;8.40;;;7.80;;
16135;SDS011;8173;48.354;9.248;2022-08-19T00:57:23;8.95;;;8.25;;
16135;SDS011;8173;48.354;9.248;2022-08-19T00:59:54;8.05;;;7.45;;
16135;SDS011;8173;48.354;9.248;2022-08-19T01:02:23;8.27;;;7.63;;
16135;SDS011;8173;48.354;9.248;2022-08-19T01:04:49;8.45;;;7.85;;
16135;SDS011;8173;48.354;9.248;2022-08-19T01:07:18;7.80;;;7.20;;
16135;SDS011;8173;48.354;9.248;2022-08-19T01:09:45;8.38;;;7.75;;
16135;SDS011;8173;48.354;9.248;2022-08-19T01:12:12;9.10;;;8.38;;
16135;SDS011;8173;48.354;9.248;2022-08-19T01:14:40;9.10;;;8.40;;
16135;SDS011;8173;48.354;9.248;2022-08-19T01:17:07;8.95;;;8.25;;
16135;SDS011;8173;48.354;9.248;2022-08-19T01:19:37;9.80;;;9.00;;
16135;SDS011;8173;48.354;9.248;2022-08-19T01:22:08;8.80;;;8.10;;
16135;SDS011;8173;48.354;9.248;2022-08-19T01:24:39;8.93;;;8.23;;
16135;SDS011;8173;48.354;9.248;2022-08-19T01:27:07;8.88;;;8.18;;
16135;SDS011;8173;48.354;9.248;2022-08-19T01:29:34;8.27;;;7.68;;
16135;SDS011;8173;48.354;9.248;2022-08-19T01:32:05;8.02;;;7.43;;
16135;SDS011;8173;48.354;9.248;2022-08-19T01:34:33;8.38;;;7.63;;
16135;SDS011;8173;48.354;9.248;2022-08-19T01:37:00;8.07;;;7.47;;
16135;SDS011;8173;48.354;9.248;2022-08-19T01:39:33;7.80;;;7.20;;
16135;SDS011;8173;48.354;9.248;2022-08-19T01:42:01;8.10;;;7.50;;
16135;SDS011;8173;48.354;9.248;2022-08-19T01:44:29;8.45;;;7.75;;
16135;SDS011;8173;48.354;9.248;2022-08-19T01:46:56;9.15;;;8.35;;
16135;SDS011;8173;48.354;9.248;2022-08-19T01:49:23;9.15;;;8.45;;
16135;SDS011;8173;48.354;9.248;2022-08-19T01:51:51;8.65;;;7.95;;
16135;SDS011;8173;48.354;9.248;2022-08-19T01:54:19;9.35;;;8.55;;
16135;SDS011;8173;48.354;9.248;2022-08-19T01:56:48;8.75;;;8.05;;
16135;SDS011;8173;48.354;9.248;2022-08-19T01:59:17;9.57;;;8.88;;
16135;SDS011;8173;48.354;9.248;2022-08-19T02:01:46;9.52;;;8.73;;
16135;SDS011;8173;48.354;9.248;2022-08-19T02:04:13;10.35;;;9.45;;
16135;SDS011;8173;48.354;9.248;2022-08-19T02:06:40;9.32;;;8.57;;
16135;SDS011;8173;48.354;9.248;2022-08-19T02:09:07;9.63;;;8.82;;
16135;SDS011;8173;48.354;9.248;2022-08-19T02:11:35;7.90;;;7.30;;
16135;SDS011;8173;48.354;9.248;2022-08-19T02:14:05;9.63;;;8.73;;
16135;SDS011;8173;48.354;9.248;2022-08-19T02:16:34;9.52;;;8.73;;
16135;SDS011;8173;48.354;9.248;2022-08-19T02:19:02;9.50;;;8.70;;
16135;SDS011;8173;48.354;9.248;2022-08-19T02:21:29;9.35;;;8.57;;
16135;SDS011;8173;48.354;9.248;2022-08-19T02:23:56;8.80;;;8.10;;
16135;SDS011;8173;48.354;9.248;2022-08-19T02:26:24;9.43;;;8.73;;
16135;SDS011;8173;48.354;9.248;2022-08-19T02:28:52;8.32;;;7.72;;
16135;SDS011;8173;48.354;9.248;2022-08-19T02:31:21;8.02;;;7.43;;
16135;SDS011;8173;48.354;9.248;2022-08-19T02:33:51;9.55;;;8.65;;
16135;SDS011;8173;48.354;9.248;2022-08-19T02:36:18;8.23;;;7.63;;
16135;SDS011;8173;48.354;9.248;2022-08-19T02:38:45;9.02;;;8.32;;
16135;SDS011;8173;48.354;9.248;2022-08-19T02:41:11;9.52;;;8.82;;
16135;SDS011;8173;48.354;9.248;2022-08-19T02:43:40;9.00;;;8.30;;
16135;SDS011;8173;48.354;9.248;2022-08-19T02:46:11;9.10;;;8.40;;
16135;SDS011;8173;48.354;9.248;2022-08-19T02:48:39;8.52;;;7.93;;
16135;SDS011;8173;48.354;9.248;2022-08-19T02:51:08;9.95;;;9.05;;
16135;SDS011;8173;48.354;9.248;2022-08-19T02:53:34;10.48;;;9.43;;
16135;SDS011;8173;48.354;9.248;2022-08-19T02:56:05;9.20;;;8.48;;
16135;SDS011;8173;48.354;9.248;2022-08-19T02:58:33;10.18;;;9.38;;
16135;SDS011;8173;48.354;9.248;2022-08-19T03:01:00;10.93;;;10.02;;
16135;SDS011;8173;48.354;9.248;2022-08-19T03:03:27;10.05;;;9.23;;
16135;SDS011;8173;48.354;9.248;2022-08-19T03:06:04;10.25;;;9.43;;
16135;SDS011;8173;48.354;9.248;2022-08-19T03:08:34;10.13;;;9.30;;
16135;SDS011;8173;48.354;9.248;2022-08-19T03:11:01;10.07;;;9.27;;
16135;SDS011;8173;48.354;9.248;2022-08-19T03:13:27;10.10;;;9.30;;
16135;SDS011;8173;48.354;9.248;2022-08-19T03:15:54;10.35;;;9.55;;
16135;SDS011;8173;48.354;9.248;2022-08-19T03:18:21;10.52;;;9.63;;
16135;SDS011;8173;48.354;9.248;2022-08-19T03:20:50;10.68;;;9.77;;
16135;SDS011;8173;48.354;9.248;2022-08-19T03:23:19;10.20;;;9.43;;
16135;SDS011;8173;48.354;9.248;2022-08-19T03:25:49;10.27;;;9.48;;
16135;SDS011;8173;48.354;9.248;2022-08-19T03:28:23;9.85;;;9.05;;
16135;SDS011;8173;48.354;9.248;2022-08-19T03:30:56;10.73;;;9.82;;
16135;SDS011;8173;48.354;9.248;2022-08-19T03:33:25;10.68;;;9.77;;
16135;SDS011;8173;48.354;9.248;2022-08-19T03:35:59;10.55;;;9.70;;
16135;SDS011;8173;48.354;9.248;2022-08-19T03:38:30;10.73;;;9.80;;
16135;SDS011;8173;48.354;9.248;2022-08-19T03:41:02;10.32;;;9.50;;
16135;SDS011;8173;48.354;9.248;2022-08-19T03:43:31;10.20;;;9.40;;
16135;SDS011;8173;48.354;9.248;2022-08-19T03:46:00;9.88;;;9.07;;
16135;SDS011;8173;48.354;9.248;2022-08-19T03:48:29;11.00;;;10.10;;
16135;SDS011;8173;48.354;9.248;2022-08-19T03:50:56;10.77;;;9.88;;
16135;SDS011;8173;48.354;9.248;2022-08-19T03:53:24;11.25;;;10.35;;
16135;SDS011;8173;48.354;9.248;2022-08-19T03:55:52;10.23;;;9.40;;
16135;SDS011;8173;48.354;9.248;2022-08-19T03:58:20;10.20;;;9.40;;
16135;SDS011;8173;48.354;9.248;2022-08-19T04:00:47;10.15;;;9.35;;
16135;SDS011;8173;48.354;9.248;2022-08-19T04:03:15;10.88;;;9.85;;
16135;SDS011;8173;48.354;9.248;2022-08-19T04:05:43;11.07;;;10.18;;
16135;SDS011;8173;48.354;9.248;2022-08-19T04:08:10;11.80;;;10.80;;
16135;SDS011;8173;48.354;9.248;2022-08-19T04:10:38;10.20;;;9.35;;
16135;SDS011;8173;48.354;9.248;2022-08-19T04:13:05;11.57;;;10.57;;
16135;SDS011;8173;48.354;9.248;2022-08-19T04:15:38;11.20;;;10.30;;
16135;SDS011;8173;48.354;9.248;2022-08-19T04:18:06;10.23;;;9.43;;
16135;SDS011;8173;48.354;9.248;2022-08-19T04:20:38;10.45;;;9.60;;
16135;SDS011;8173;48.354;9.248;2022-08-19T04:23:05;10.95;;;9.95;;
16135;SDS011;8173;48.354;9.248;2022-08-19T04:25:34;10.18;;;9.35;;
16135;SDS011;8173;48.354;9.248;2022-08-19T04:28:02;10.57;;;9.68;;
16135;SDS011;8173;48.354;9.248;2022-08-19T04:30:29;11.13;;;10.23;;
16135;SDS011;8173;48.354;9.248;2022-08-19T04:32:57;11.20;;;10.20;;
16135;SDS011;8173;48.354;9.248;2022-08-19T04:35:24;11.25;;;10.13;;
16135;SDS011;8173;48.354;9.248;2022-08-19T04:37:51;11.70;;;10.70;;
16135;SDS011;8173;48.354;9.248;2022-08-19T04:40:18;11.75;;;10.75;;
16135;SDS011;8173;48.354;9.248;2022-08-19T04:43:02;11.55;;;10.55;;
16135;SDS011;8173;48.354;9.248;2022-08-19T04:45:28;11.93;;;10.98;;
16135;SDS011;8173;48.354;9.248;2022-08-19T04:47:55;11.40;;;10.50;;
16135;SDS011;8173;48.354;9.248;2022-08-19T04:50:24;11.82;;;10.93;;
16135;SDS011;8173;48.354;9.248;2022-08-19T04:52:51;11.10;;;10.20;;
16135;SDS011;8173;48.354;9.248;2022-08-19T04:55:20;11.80;;;10.82;;
16135;SDS011;8173;48.354;9.248;2022-08-19T04:57:47;12.00;;;11.10;;
16135;SDS011;8173;48.354;9.248;2022-08-19T05:00:13;11.00;;;10.10;;
16135;SDS011;8173;48.354;9.248;2022-08-19T05:02:40;11.00;;;10.00;;
16135;SDS011;8173;48.354;9.248;2022-08-19T05:05:09;10.23;;;9.43;;
16135;SDS011;8173;48.354;9.248;2022-08-19T05:07:36;10.52;;;9.73;;
16135;SDS011;8173;48.354;9.248;2022-08-19T05:10:03;10.38;;;9.57;;
16135;SDS011;8173;48.354;9.248;2022-08-19T05:12:31;9.60;;;8.85;;
16135;SDS011;8173;48.354;9.248;2022-08-19T05:14:58;10.15;;;9.35;;
16135;SDS011;8173;48.354;9.248;2022-08-19T05:17:26;10.02;;;9.27;;
16135;SDS011;8173;48.354;9.248;2022-08-19T05:19:53;9.82;;;9.10;;
16135;SDS011;8173;48.354;9.248;2022-08-19T05:22:39;10.50;;;9.70;;
16135;SDS011;8173;48.354;9.248;2022-08-19T05:25:07;11.50;;;10.48;;
16135;SDS011;8173;48.354;9.248;2022-08-19T05:27:37;10.85;;;9.95;;
16135;SDS011;8173;48.354;9.248;2022-08-19T05:30:04;9.68;;;8.88;;
16135;SDS011;8173;48.354;9.248;2022-08-19T05:32:32;10.45;;;9.55;;
16135;SDS011;8173;48.354;9.248;2022-08-19T05:34:58;10.70;;;9.90;;
16135;SDS011;8173;48.354;9.248;2022-08-19T05:37:25;9.77;;;8.98;;
16135;SDS011;8173;48.354;9.248;2022-08-19T05:39:54;9.50;;;8.80;;
16135;SDS011;8173;48.354;9.248;2022-08-19T05:42:21;9.60;;;8.80;;
16135;SDS011;8173;48.354;9.248;2022-08-19T05:44:49;9.63;;;8.88;;
16135;SDS011;8173;48.354;9.248;2022-08-19T05:47:16;9.70;;;8.90;;
16135;SDS011;8173;48.354;9.248;2022-08-19T05:49:44;10.38;;;9.38;;
16135;SDS011;8173;48.354;9.248;2022-08-19T05:52:13;9.82;;;9.10;;
16135;SDS011;8173;48.354;9.248;2022-08-19T05:54:42;9.18;;;8.50;;
16135;SDS011;8173;48.354;9.248;2022-08-19T05:57:11;9.98;;;9.18;;
16135;SDS011;8173;48.354;9.248;2022-08-19T05:59:38;9.10;;;8.40;;
16135;SDS011;8173;48.354;9.248;2022-08-19T06:02:05;9.43;;;8.73;;
16135;SDS011;8173;48.354;9.248;2022-08-19T06:04:33;10.32;;;9.55;;
16135;SDS011;8173;48.354;9.248;2022-08-19T06:07:00;9.38;;;8.68;;
16135;SDS011;8173;48.354;9.248;2022-08-19T06:09:27;10.07;;;9.27;;
16135;SDS011;8173;48.354;9.248;2022-08-19T06:11:55;9.98;;;9.18;;
16135;SDS011;8173;48.354;9.248;2022-08-19T06:14:26;10.05;;;9.35;;
16135;SDS011;8173;48.354;9.248;2022-08-19T06:16:55;10.18;;;9.38;;
16135;SDS011;8173;48.354;9.248;2022-08-19T06:19:25;9.70;;;8.90;;
16135;SDS011;8173;48.354;9.248;2022-08-19T06:21:54;10.70;;;9.80;;
16135;SDS011;8173;48.354;9.248;2022-08-19T06:24:21;10.38;;;9.57;;
16135;SDS011;8173;48.354;9.248;2022-08-19T06:26:50;10.80;;;9.98;;
16135;SDS011;8173;48.354;9.248;2022-08-19T06:29:20;11.38;;;10.48;;
16135;SDS011;8173;48.354;9.248;2022-08-19T06:31:51;10.68;;;9.88;;
16135;SDS011;8173;48.354;9.248;2022-08-19T06:34:19;10.27;;;9.48;;
16135;SDS011;8173;48.354;9.248;2022-08-19T06:36:47;10.18;;;9.38;;
16135;SDS011;8173;48.354;9.248;2022-08-19T06:39:16;10.50;;;9.65;;
16135;SDS011;8173;48.354;9.248;2022-08-19T06:41:45;10.25;;;9.45;;
16135;SDS011;8173;48.354;9.248;2022-08-19T06:44:16;10.05;;;9.25;;
16135;SDS011;8173;48.354;9.248;2022-08-19T06:46:43;10.07;;;9.27;;
16135;SDS011;8173;48.354;9.248;2022-08-19T06:49:12;9.70;;;9.00;;
16135;SDS011;8173;48.354;9.248;2022-08-19T06:51:40;9.65;;;8.95;;
16135;SDS011;8173;48.354;9.248;2022-08-19T06:54:08;10.07;;;9.27;;
16135;SDS011;8173;48.354;9.248;2022-08-19T06:56:35;10.80;;;10.00;;
16135;SDS011;8173;48.354;9.248;2022-08-19T06:59:03;9.85;;;9.05;;
16135;SDS011;8173;48.354;9.248;2022-08-19T07:01:33;9.88;;;9.18;;
16135;SDS011;8173;48.354;9.248;2022-08-19T07:04:02;10.02;;;9.23;;
16135;SDS011;8173;48.354;9.248;2022-08-19T07:06:32;9.88;;;9.13;;
16135;SDS011;8173;48.354;9.248;2022-08-19T07:08:59;9.70;;;9.00;;
16135;SDS011;8173;48.354;9.248;2022-08-19T07:11:26;10.23;;;9.43;;
16135;SDS011;8173;48.354;9.248;2022-08-19T07:13:53;9.18;;;8.48;;
16135;SDS011;8173;48.354;9.248;2022-08-19T07:16:20;10.23;;;9.43;;
16135;SDS011;8173;48.354;9.248;2022-08-19T07:18:47;10.38;;;9.57;;
16135;SDS011;8173;48.354;9.248;2022-08-19T07:21:16;10.10;;;9.40;;
16135;SDS011;8173;48.354;9.248;2022-08-19T07:23:45;10.38;;;9.57;;
16135;SDS011;8173;48.354;9.248;2022-08-19T07:26:14;10.10;;;9.32;;
16135;SDS011;8173;48.354;9.248;2022-08-19T07:28:44;10.45;;;9.50;;
16135;SDS011;8173;48.354;9.248;2022-08-19T07:31:12;10.82;;;10.02;;
16135;SDS011;8173;48.354;9.248;2022-08-19T07:33:40;10.23;;;9.43;;
16135;SDS011;8173;48.354;9.248;2022-08-19T07:36:09;10.82;;;9.93;;
16135;SDS011;8173;48.354;9.248;2022-08-19T07:38:38;10.68;;;9.88;;
16135;SDS011;8173;48.354;9.248;2022-08-19T07:41:08;10.57;;;9.77;;
16135;SDS011;8173;48.354;9.248;2022-08-19T07:43:37;10.85;;;9.95;;
16135;SDS011;8173;48.354;9.248;2022-08-19T07:46:04;10.93;;;10.13;;
16135;SDS011;8173;48.354;9.248;2022-08-19T07:48:31;11.02;;;10.20;;
16135;SDS011;8173;48.354;9.248;2022-08-19T07:50:59;11.77;;;10.88;;
16135;SDS011;8173;48.354;9.248;2022-08-19T07:53:27;11.32;;;10.43;;
16135;SDS011;8173;48.354;9.248;2022-08-19T07:55:55;12.23;;;11.23;;
16135;SDS011;8173;48.354;9.248;2022-08-19T07:58:25;11.45;;;10.55;;
16135;SDS011;8173;48.354;9.248;2022-08-19T08:00:52;11.48;;;10.57;;
16135;SDS011;8173;48.354;9.248;2022-08-19T08:03:20;11.50;;;10.60;;
16135;SDS011;8173;48.354;9.248;2022-08-19T08:06:08;11.93;;;10.93;;
16135;SDS011;8173;48.354;9.248;2022-08-19T08:08:53;10.05;;;9.25;;
16135;SDS011;8173;48.354;9.248;2022-08-19T08:11:43;10.55;;;9.75;;
16135;SDS011;8173;48.354;9.248;2022-08-19T08:14:15;10.52;;;9.73;;
16135;SDS011;8173;48.354;9.248;2022-08-19T08:16:43;9.50;;;8.80;;
16135;SDS011;8173;48.354;9.248;2022-08-19T08:19:11;11.13;;;10.30;;
16135;SDS011;8173;48.354;9.248;2022-08-19T08:21:40;8.60;;;7.97;;
16135;SDS011;8173;48.354;9.248;2022-08-19T08:24:08;9.77;;;8.98;;
16135;SDS011;8173;48.354;9.248;2022-08-19T08:26:35;9.65;;;8.95;;
16135;SDS011;8173;48.354;9.248;2022-08-19T08:29:02;10.15;;;9.38;;
16135;SDS011;8173;48.354;9.248;2022-08-19T08:31:30;8.75;;;8.15;;
16135;SDS011;8173;48.354;9.248;2022-08-19T08:33:57;8.63;;;8.02;;
16135;SDS011;8173;48.354;9.248;2022-08-19T08:36:24;7.90;;;7.40;;
16135;SDS011;8173;48.354;9.248;2022-08-19T08:38:52;7.50;;;6.90;;
16135;SDS011;8173;48.354;9.248;2022-08-19T08:41:21;6.70;;;6.20;;
16135;SDS011;8173;48.354;9.248;2022-08-19T08:43:54;6.55;;;6.15;;
16135;SDS011;8173;48.354;9.248;2022-08-19T08:46:23;6.93;;;6.43;;
16135;SDS011;8173;48.354;9.248;2022-08-19T08:48:56;6.40;;;6.00;;
16135;SDS011;8173;48.354;9.248;2022-08-19T08:51:27;6.82;;;6.32;;
16135;SDS011;8173;48.354;9.248;2022-08-19T08:53:59;7.07;;;6.57;;
16135;SDS011;8173;48.354;9.248;2022-08-19T08:56:26;7.82;;;7.22;;
16135;SDS011;8173;48.354;9.248;2022-08-19T08:58:54;8.32;;;7.35;;
16135;SDS011;8173;48.354;9.248;2022-08-19T09:01:24;5.63;;;5.22;;
16135;SDS011;8173;48.354;9.248;2022-08-19T09:03:52;6.50;;;6.00;;
16135;SDS011;8173;48.354;9.248;2022-08-19T09:06:22;5.60;;;5.20;;
16135;SDS011;8173;48.354;9.248;2022-08-19T09:08:59;5.95;;;5.55;;
16135;SDS011;8173;48.354;9.248;2022-08-19T09:11:36;5.43;;;5.03;;
16135;SDS011;8173;48.354;9.248;2022-08-19T09:14:12;5.40;;;5.00;;
16135;SDS011;8173;48.354;9.248;2022-08-19T09:16:48;4.60;;;4.30;;
16135;SDS011;8173;48.354;9.248;2022-08-19T09:19:16;4.90;;;4.50;;
16135;SDS011;8173;48.354;9.248;2022-08-19T09:21:46;4.25;;;3.95;;
16135;SDS011;8173;48.354;9.248;2022-08-19T09:24:14;4.80;;;4.45;;
16135;SDS011;8173;48.354;9.248;2022-08-19T09:26:41;5.30;;;4.90;;
16135;SDS011;8173;48.354;9.248;2022-08-19T09:29:08;5.80;;;5.13;;
16135;SDS011;8173;48.354;9.248;2022-08-19T09:31:35;5.32;;;4.93;;
16135;SDS011;8173;48.354;9.248;2022-08-19T09:34:02;4.43;;;4.13;;
16135;SDS011;8173;48.354;9.248;2022-08-19T09:36:29;4.65;;;4.05;;
16135;SDS011;8173;48.354;9.248;2022-08-19T09:38:59;4.93;;;3.78;;
16135;SDS011;8173;48.354;9.248;2022-08-19T09:41:26;3.33;;;3.13;;
16135;SDS011;8173;48.354;9.248;2022-08-19T09:43:54;3.58;;;3.28;;
16135;SDS011;8173;48.354;9.248;2022-08-19T09:46:22;3.50;;;3.20;;
16135;SDS011;8173;48.354;9.248;2022-08-19T09:48:51;2.50;;;2.30;;
16135;SDS011;8173;48.354;9.248;2022-08-19T09:51:19;2.33;;;2.22;;
16135;SDS011;8173;48.354;9.248;2022-08-19T09:53:48;2.10;;;2.00;;
16135;SDS011;8173;48.354;9.248;2022-08-19T09:56:18;1.98;;;1.80;;
16135;SDS011;8173;48.354;9.248;2022-08-19T09:58:45;1.90;;;1.80;;
16135;SDS011;8173;48.354;9.248;2022-08-19T10:01:15;4.30;;;1.90;;
16135;SDS011;8173;48.354;9.248;2022-08-19T10:03:43;1.70;;;1.60;;
16135;SDS011;8173;48.354;9.248;2022-08-19T10:06:12;1.50;;;1.40;;
16135;SDS011;8173;48.354;9.248;2022-08-19T10:08:39;1.95;;;1.70;;
16135;SDS011;8173;48.354;9.248;2022-08-19T10:11:06;1.65;;;1.55;;
16135;SDS011;8173;48.354;9.248;2022-08-19T10:13:34;1.67;;;1.58;;
16135;SDS011;8173;48.354;9.248;2022-08-19T10:16:03;1.90;;;1.80;;
16135;SDS011;8173;48.354;9.248;2022-08-19T10:18:31;2.50;;;2.30;;
16135;SDS011;8173;48.354;9.248;2022-08-19T10:21:04;2.13;;;2.03;;
16135;SDS011;8173;48.354;9.248;2022-08-19T10:23:34;2.10;;;2.00;;
16135;SDS011;8173;48.354;9.248;2022-08-19T10:26:02;2.58;;;2.38;;
16135;SDS011;8173;48.354;9.248;2022-08-19T10:28:30;2.72;;;2.53;;
16135;SDS011;8173;48.354;9.248;2022-08-19T10:31:01;2.63;;;2.42;;
16135;SDS011;8173;48.354;9.248;2022-08-19T10:33:30;2.33;;;2.22;;
16135;SDS011;8173;48.354;9.248;2022-08-19T10:36:01;2.88;;;2.67;;
16135;SDS011;8173;48.354;9.248;2022-08-19T10:38:29;2.10;;;2.00;;
16135;SDS011;8173;48.354;9.248;2022-08-19T10:40:56;2.58;;;2.40;;
16135;SDS011;8173;48.354;9.248;2022-08-19T10:43:23;2.17;;;2.08;;
16135;SDS011;8173;48.354;9.248;2022-08-19T10:45:53;2.10;;;2.00;;
16135;SDS011;8173;48.354;9.248;2022-08-19T10:48:24;2.25;;;2.05;;
16135;SDS011;8173;48.354;9.248;2022-08-19T10:50:51;1.92;;;1.83;;
16135;SDS011;8173;48.354;9.248;2022-08-19T10:53:35;1.92;;;1.83;;
16135;SDS011;8173;48.354;9.248;2022-08-19T10:56:02;1.90;;;1.80;;
16135;SDS011;8173;48.354;9.248;2022-08-19T10:58:46;1.80;;;1.70;;
16135;SDS011;8173;48.354;9.248;2022-08-19T11:01:13;1.80;;;1.70;;
16135;SDS011;8173;48.354;9.248;2022-08-19T11:03:42;1.88;;;1.77;;
16135;SDS011;8173;48.354;9.248;2022-08-19T11:06:10;2.08;;;1.98;;
16135;SDS011;8173;48.354;9.248;2022-08-19T11:08:37;2.40;;;2.30;;
16135;SDS011;8173;48.354;9.248;2022-08-19T11:11:04;2.20;;;2.10;;
16135;SDS011;8173;48.354;9.248;2022-08-19T11:13:33;2.95;;;2.75;;
16135;SDS011;8173;48.354;9.248;2022-08-19T11:16:03;3.20;;;3.00;;
16135;SDS011;8173;48.354;9.248;2022-08-19T11:18:31;3.20;;;2.90;;
16135;SDS011;8173;48.354;9.248;2022-08-19T11:21:06;3.80;;;3.50;;
16135;SDS011;8173;48.354;9.248;2022-08-19T11:23:35;2.50;;;2.40;;
16135;SDS011;8173;48.354;9.248;2022-08-19T11:26:02;3.13;;;2.92;;
16135;SDS011;8173;48.354;9.248;2022-08-19T11:28:29;2.80;;;2.60;;
16135;SDS011;8173;48.354;9.248;2022-08-19T11:30:56;3.08;;;2.88;;
16135;SDS011;8173;48.354;9.248;2022-08-19T11:33:23;3.20;;;2.92;;
16135;SDS011;8173;48.354;9.248;2022-08-19T11:35:51;2.67;;;2.47;;
16135;SDS011;8173;48.354;9.248;2022-08-19T11:38:19;2.90;;;2.70;;
16135;SDS011;8173;48.354;9.248;2022-08-19T11:40:53;3.50;;;3.30;;
16135;SDS011;8173;48.354;9.248;2022-08-19T11:43:21;4.20;;;3.90;;
16135;SDS011;8173;48.354;9.248;2022-08-19T11:45:48;6.35;;;5.85;;
16135;SDS011;8173;48.354;9.248;2022-08-19T11:48:15;5.60;;;5.30;;
16135;SDS011;8173;48.354;9.248;2022-08-19T11:50:42;8.27;;;7.68;;
16135;SDS011;8173;48.354;9.248;2022-08-19T11:53:09;7.35;;;6.75;;
16135;SDS011;8173;48.354;9.248;2022-08-19T11:55:37;8.13;;;7.53;;
16135;SDS011;8173;48.354;9.248;2022-08-19T11:58:05;7.75;;;7.15;;
16135;SDS011;8173;48.354;9.248;2022-08-19T12:00:32;6.50;;;6.07;;
16135;SDS011;8173;48.354;9.248;2022-08-19T12:03:00;6.95;;;6.45;;
16135;SDS011;8173;48.354;9.248;2022-08-19T12:05:27;8.02;;;7.43;;
16135;SDS011;8173;48.354;9.248;2022-08-19T12:07:54;6.28;;;5.78;;
16135;SDS011;8173;48.354;9.248;2022-08-19T12:10:21;6.93;;;6.32;;
16135;SDS011;8173;48.354;9.248;2022-08-19T12:12:49;7.95;;;7.28;;
16135;SDS011;8173;48.354;9.248;2022-08-19T12:15:17;6.55;;;6.05;;
16135;SDS011;8173;48.354;9.248;2022-08-19T12:17:43;7.10;;;6.40;;
16135;SDS011;8173;48.354;9.248;2022-08-19T12:20:11;6.82;;;6.32;;
16135;SDS011;8173;48.354;9.248;2022-08-19T12:22:41;6.40;;;6.00;;
16135;SDS011;8173;48.354;9.248;2022-08-19T12:25:08;6.95;;;6.47;;
16135;SDS011;8173;48.354;9.248;2022-08-19T12:27:35;6.75;;;6.32;;
16135;SDS011;8173;48.354;9.248;2022-08-19T12:30:04;7.45;;;6.75;;
16135;SDS011;8173;48.354;9.248;2022-08-19T12:32:34;6.50;;;6.10;;
16135;SDS011;8173;48.354;9.248;2022-08-19T12:35:01;6.72;;;6.22;;
16135;SDS011;8173;48.354;9.248;2022-08-19T12:37:28;6.63;;;6.20;;
16135;SDS011;8173;48.354;9.248;2022-08-19T12:39:56;7.40;;;6.90;;
16135;SDS011;8173;48.354;9.248;2022-08-19T12:42:23;7.60;;;7.10;;
16135;SDS011;8173;48.354;9.248;2022-08-19T12:44:50;7.03;;;6.53;;
16135;SDS011;8173;48.354;9.248;2022-08-19T12:47:19;6.97;;;6.47;;
16135;SDS011;8173;48.354;9.248;2022-08-19T12:49:46;6.90;;;6.50;;
16135;SDS011;8173;48.354;9.248;2022-08-19T12:52:14;7.18;;;6.68;;
16135;SDS011;8173;48.354;9.248;2022-08-19T12:54:41;5.88;;;5.47;;
16135;SDS011;8173;48.354;9.248;2022-08-19T12:57:09;7.70;;;7.10;;
16135;SDS011;8173;48.354;9.248;2022-08-19T12:59:37;7.93;;;7.32;;
16135;SDS011;8173;48.354;9.248;2022-08-19T13:02:04;7.55;;;7.00;;
16135;SDS011;8173;48.354;9.248;2022-08-19T13:04:33;7.93;;;7.32;;
16135;SDS011;8173;48.354;9.248;2022-08-19T13:07:03;8.23;;;7.63;;
16135;SDS011;8173;48.354;9.248;2022-08-19T13:09:30;9.18;;;8.48;;
16135;SDS011;8173;48.354;9.248;2022-08-19T13:11:56;7.65;;;7.15;;
16135;SDS011;8173;48.354;9.248;2022-08-19T13:14:25;7.57;;;6.97;;
16135;SDS011;8173;48.354;9.248;2022-08-19T13:16:52;8.52;;;7.93;;
16135;SDS011;8173;48.354;9.248;2022-08-19T13:19:18;8.77;;;8.13;;
16135;SDS011;8173;48.354;9.248;2022-08-19T13:21:50;7.43;;;6.93;;
16135;SDS011;8173;48.354;9.248;2022-08-19T13:24:17;8.35;;;7.75;;
16135;SDS011;8173;48.354;9.248;2022-08-19T13:26:44;7.78;;;7.20;;
16135;SDS011;8173;48.354;9.248;2022-08-19T13:29:11;7.80;;;7.30;;
16135;SDS011;8173;48.354;9.248;2022-08-19T13:31:55;8.70;;;8.10;;
16135;SDS011;8173;48.354;9.248;2022-08-19T13:34:39;7.63;;;7.13;;
16135;SDS011;8173;48.354;9.248;2022-08-19T13:37:07;6.65;;;6.25;;
16135;SDS011;8173;48.354;9.248;2022-08-19T13:39:34;6.50;;;6.00;;
16135;SDS011;8173;48.354;9.248;2022-08-19T13:42:02;6.80;;;6.32;;
16135;SDS011;8173;48.354;9.248;2022-08-19T13:44:29;6.50;;;6.10;;
16135;SDS011;8173;48.354;9.248;2022-08-19T13:47:00;6.10;;;5.70;;
16135;SDS011;8173;48.354;9.248;2022-08-19T13:49:30;6.65;;;6.15;;
16135;SDS011;8173;48.354;9.248;2022-08-19T13:51:57;6.03;;;5.63;;
16135;SDS011;8173;48.354;9.248;2022-08-19T13:54:25;6.35;;;5.85;;
16135;SDS011;8173;48.354;9.248;2022-08-19T13:56:53;6.63;;;6.05;;
16135;SDS011;8173;48.354;9.248;2022-08-19T13:59:19;6.32;;;5.93;;
16135;SDS011;8173;48.354;9.248;2022-08-19T14:01:46;7.07;;;6.45;;
16135;SDS011;8173;48.354;9.248;2022-08-19T14:04:13;6.40;;;5.90;;
16135;SDS011;8173;48.354;9.248;2022-08-19T14:06:40;6.00;;;5.60;;
16135;SDS011;8173;48.354;9.248;2022-08-19T14:09:07;5.60;;;5.25;;
16135;SDS011;8173;48.354;9.248;2022-08-19T14:11:35;6.35;;;5.95;;
16135;SDS011;8173;48.354;9.248;2022-08-19T14:14:02;5.70;;;5.32;;
16135;SDS011;8173;48.354;9.248;2022-08-19T14:16:29;6.03;;;5.63;;
16135;SDS011;8173;48.354;9.248;2022-08-19T14:18:56;7.10;;;6.35;;
16135;SDS011;8173;48.354;9.248;2022-08-19T14:21:23;5.72;;;5.38;;
16135;SDS011;8173;48.354;9.248;2022-08-19T14:23:51;6.00;;;5.50;;
16135;SDS011;8173;48.354;9.248;2022-08-19T14:26:19;5.13;;;4.65;;
16135;SDS011;8173;48.354;9.248;2022-08-19T14:28:49;4.50;;;4.20;;
16135;SDS011;8173;48.354;9.248;2022-08-19T14:31:17;3.97;;;3.75;;
16135;SDS011;8173;48.354;9.248;2022-08-19T14:33:46;4.07;;;3.88;;
16135;SDS011;8173;48.354;9.248;2022-08-19T14:36:13;4.10;;;3.80;;
16135;SDS011;8173;48.354;9.248;2022-08-19T14:38:40;4.03;;;3.80;;
16135;SDS011;8173;48.354;9.248;2022-08-19T14:41:12;4.00;;;3.78;;
16135;SDS011;8173;48.354;9.248;2022-08-19T14:43:41;3.92;;;3.65;;
16135;SDS011;8173;48.354;9.248;2022-08-19T14:46:12;3.67;;;3.47;;
16135;SDS011;8173;48.354;9.248;2022-08-19T14:48:40;5.15;;;4.75;;
16135;SDS011;8173;48.354;9.248;2022-08-19T14:51:07;5.13;;;4.82;;
16135;SDS011;8173;48.354;9.248;2022-08-19T14:53:34;5.03;;;4.72;;
16135;SDS011;8173;48.354;9.248;2022-08-19T14:56:06;4.53;;;4.22;;
16135;SDS011;8173;48.354;9.248;2022-08-19T14:58:34;4.68;;;4.38;;
16135;SDS011;8173;48.354;9.248;2022-08-19T15:01:01;5.05;;;4.75;;
16135;SDS011;8173;48.354;9.248;2022-08-19T15:03:29;4.85;;;4.55;;